createdAt,value
2022-08-19T00:03:00.423Z,20.50
2022-08-19T00:06:02.360Z,18.00
2022-08-19T00:09:07.012Z,20.00
2022-08-19T00:12:09.759Z,18.73
2022-08-19T00:15:15.030Z,17.33
2022-08-19T00:18:17.068Z,16.50
2022-08-19T00:21:19.194Z,17.80
2022-08-19T00:24:21.140Z,18.50
2022-08-19T00:27:26.061Z,18.00
2022-08-19T00:30:28.935Z,18.88
2022-08-19T00:33:33.476Z,17.13
2022-08-19T00:36:35.696Z,16.50
2022-08-19T00:39:39.503Z,29.55
2022-08-19T00:42:41.874Z,17.85
2022-08-19T00:45:44.620Z,16.15
2022-08-19T00:48:46.522Z,15.90
2022-08-19T00:51:52.984Z,17.83
2022-08-19T00:54:58.040Z,16.88
2022-08-19T00:58:08.013Z,16.05
2022-08-19T01:01:10.114Z,15.25
2022-08-19T01:04:14.619Z,15.10
2022-08-19T01:07:19.740Z,15.30
2022-08-19T01:10:26.778Z,15.82
2022-08-19T01:13:49.037Z,16.33
2022-08-19T01:16:55.503Z,16.27
2022-08-19T01:19:57.442Z,16.40
2022-08-19T01:23:00.202Z,15.63
2022-08-19T01:26:02.138Z,16.88
2022-08-19T01:29:05.168Z,15.27
2022-08-19T01:32:09.696Z,16.25
2022-08-19T01:35:33.194Z,15.00
2022-08-19T01:38:43.958Z,17.73
2022-08-19T01:41:47.215Z,18.63
2022-08-19T01:44:49.890Z,17.05
2022-08-19T01:48:01.053Z,17.25
2022-08-19T01:51:04.702Z,16.70
2022-08-19T01:54:11.370Z,15.57
2022-08-19T01:57:15.733Z,15.73
2022-08-19T02:00:20.545Z,15.60
2022-08-19T02:03:23.701Z,16.52
2022-08-19T02:06:26.899Z,16.10
2022-08-19T02:09:29.370Z,18.60
2022-08-19T02:12:31.527Z,14.68
2022-08-19T02:15:33.526Z,16.45
2022-08-19T02:18:36.169Z,14.73
2022-08-19T02:21:38.511Z,14.65
2022-08-19T02:24:40.741Z,14.48
2022-08-19T02:27:43.250Z,12.98
2022-08-19T02:30:45.785Z,14.55
2022-08-19T02:33:48.620Z,13.27
2022-08-19T02:36:51.991Z,13.93
2022-08-19T02:39:54.430Z,14.13
2022-08-19T02:42:57.345Z,15.13
2022-08-19T02:45:59.355Z,14.95
2022-08-19T02:49:06.098Z,16.25
2022-08-19T02:52:08.350Z,15.40
2022-08-19T02:55:10.980Z,17.50
2022-08-19T02:58:14.422Z,15.23
2022-08-19T03:01:32.321Z,14.20
2022-08-19T03:04:34.319Z,15.30
2022-08-19T03:07:37.717Z,16.52
2022-08-19T03:10:45.212Z,14.98
2022-08-19T03:13:50.041Z,14.68
2022-08-19T03:16:53.555Z,15.75
2022-08-19T03:19:55.741Z,15.05
2022-08-19T03:22:58.466Z,14.48
2022-08-19T03:26:16.348Z,18.25
2022-08-19T03:29:30.149Z,14.52
2022-08-19T03:32:33.334Z,15.13
2022-08-19T03:35:37.690Z,15.13
2022-08-19T03:38:46.253Z,13.73
2022-08-19T03:42:32.753Z,15.52
2022-08-19T03:45:15.114Z,14.93
2022-08-19T03:48:18.299Z,15.55
2022-08-19T03:51:30.876Z,15.95
2022-08-19T03:54:35.444Z,15.50
2022-08-19T03:57:37.694Z,17.40
2022-08-19T04:00:44.016Z,25.67
2022-08-19T04:03:50.002Z,17.40
2022-08-19T04:06:52.601Z,15.27
2022-08-19T04:09:54.768Z,14.48
2022-08-19T04:12:56.737Z,16.73
2022-08-19T04:15:58.829Z,15.73
2022-08-19T04:19:02.757Z,16.67
2022-08-19T04:22:05.475Z,16.55
2022-08-19T04:25:07.641Z,17.33
2022-08-19T04:28:11.427Z,17.75
2022-08-19T04:31:19.257Z,18.05
2022-08-19T04:34:23.560Z,25.00
2022-08-19T04:37:27.464Z,16.10
2022-08-19T04:41:01.955Z,14.75
2022-08-19T04:44:04.665Z,14.57
2022-08-19T04:47:11.277Z,18.02
2022-08-19T04:50:13.851Z,30.00
2022-08-19T04:53:16.274Z,15.23
2022-08-19T04:56:20.481Z,17.63
2022-08-19T04:59:23.224Z,15.27
2022-08-19T05:02:25.625Z,15.85
2022-08-19T05:05:27.762Z,18.27
2022-08-19T05:08:30.762Z,15.85
2022-08-19T05:11:38.372Z,14.02
2022-08-19T05:14:40.348Z,17.73
2022-08-19T05:18:02.484Z,18.13
2022-08-19T05:21:28.195Z,14.93
2022-08-19T05:24:31.282Z,26.75
2022-08-19T05:27:34.241Z,15.77
2022-08-19T05:30:46.790Z,13.40
2022-08-19T05:33:50.870Z,13.15
2022-08-19T05:36:59.175Z,17.77
2022-08-19T05:40:01.208Z,13.85
2022-08-19T05:43:05.405Z,13.85
2022-08-19T05:46:08.277Z,14.55
2022-08-19T05:49:10.423Z,18.17
2022-08-19T05:52:16.436Z,30.17
2022-08-19T05:55:21.810Z,14.70
2022-08-19T05:58:24.941Z,26.75
2022-08-19T06:01:30.254Z,15.70
2022-08-19T06:04:32.209Z,14.40
2022-08-19T06:10:41.162Z,23.65
2022-08-19T06:13:46.029Z,18.00
2022-08-19T06:16:48.023Z,18.02
2022-08-19T06:19:50.951Z,12.45
2022-08-19T06:22:53.538Z,13.90
2022-08-19T06:25:55.855Z,12.32
2022-08-19T06:28:58.486Z,13.88
2022-08-19T06:32:03.444Z,14.00
2022-08-19T06:35:06.599Z,14.50
2022-08-19T06:38:10.416Z,22.40
2022-08-19T06:41:12.790Z,16.58
2022-08-19T06:44:16.020Z,12.68
2022-08-19T06:47:23.052Z,11.80
2022-08-19T06:50:26.949Z,14.30
2022-08-19T06:53:30.455Z,12.73
2022-08-19T06:56:36.071Z,14.63
2022-08-19T06:59:38.064Z,12.52
2022-08-19T07:02:42.622Z,23.48
2022-08-19T07:05:46.317Z,12.30
2022-08-19T07:08:49.389Z,13.57
2022-08-19T07:11:53.576Z,27.42
2022-08-19T07:14:55.722Z,13.90
2022-08-19T07:17:57.675Z,14.25
2022-08-19T07:21:09.514Z,14.13
2022-08-19T07:24:13.264Z,16.02
2022-08-19T07:27:15.695Z,26.33
2022-08-19T07:30:17.975Z,13.63
2022-08-19T07:33:20.730Z,12.73
2022-08-19T07:36:26.061Z,12.70
2022-08-19T07:39:31.710Z,12.90
2022-08-19T07:42:33.749Z,14.18
2022-08-19T07:45:36.056Z,12.80
2022-08-19T07:48:38.185Z,13.52
2022-08-19T07:51:40.332Z,36.42
2022-08-19T07:54:42.264Z,14.77
2022-08-19T08:00:52.531Z,13.45
2022-08-19T08:04:14.587Z,13.75
2022-08-19T08:07:35.557Z,18.27
2022-08-19T08:10:38.731Z,15.40
2022-08-19T08:13:42.093Z,71.00
2022-08-19T08:16:46.967Z,13.70
2022-08-19T08:19:51.871Z,14.88
2022-08-19T08:23:12.932Z,13.18
2022-08-19T08:26:16.110Z,13.80
2022-08-19T08:29:20.327Z,24.75
2022-08-19T08:32:22.385Z,14.80
2022-08-19T08:35:25.227Z,14.93
2022-08-19T08:38:27.141Z,14.40
2022-08-19T08:41:44.892Z,15.32
2022-08-19T08:45:15.809Z,14.85
2022-08-19T08:48:25.608Z,16.27
2022-08-19T08:54:55.538Z,16.63
2022-08-19T08:58:14.881Z,16.05
2022-08-19T09:01:30.354Z,16.35
2022-08-19T09:04:34.954Z,15.68
2022-08-19T09:07:59.411Z,15.93
2022-08-19T09:11:16.900Z,16.23
2022-08-19T09:14:59.568Z,15.05
2022-08-19T09:18:04.411Z,15.32
2022-08-19T09:21:10.054Z,15.00
2022-08-19T09:24:12.029Z,15.32
2022-08-19T09:27:18.271Z,15.10
2022-08-19T09:30:25.581Z,16.73
2022-08-19T09:33:27.875Z,15.13
2022-08-19T09:36:36.956Z,14.23
2022-08-19T09:39:41.760Z,14.48
2022-08-19T09:42:50.285Z,22.52
2022-08-19T09:45:53.902Z,15.50
2022-08-19T09:48:59.386Z,14.77
2022-08-19T09:52:13.653Z,15.65
2022-08-19T09:55:16.996Z,17.95
2022-08-19T09:58:23.483Z,14.90
2022-08-19T10:01:30.464Z,13.45
2022-08-19T10:04:51.211Z,14.10
2022-08-19T10:07:53.554Z,13.32
2022-08-19T10:10:58.931Z,13.07
2022-08-19T10:14:02.408Z,14.38
2022-08-19T10:17:17.698Z,12.15
2022-08-19T10:20:23.691Z,13.85
2022-08-19T10:23:26.022Z,12.23
2022-08-19T10:26:33.384Z,12.43
2022-08-19T10:29:36.145Z,13.50
2022-08-19T10:32:48.370Z,12.63
2022-08-19T10:35:56.594Z,11.10
2022-08-19T10:39:02.706Z,10.25
2022-08-19T10:42:11.543Z,11.43
2022-08-19T10:45:13.633Z,10.65
2022-08-19T10:48:15.783Z,12.60
2022-08-19T10:51:47.804Z,11.43
2022-08-19T10:55:09.359Z,10.02
2022-08-19T10:58:15.901Z,10.13
2022-08-19T11:01:18.056Z,12.02
2022-08-19T11:04:20.967Z,12.25
2022-08-19T11:07:26.095Z,12.73
2022-08-19T11:10:28.034Z,10.13
2022-08-19T11:13:38.322Z,23.23
2022-08-19T11:16:42.353Z,9.40
2022-08-19T11:19:44.444Z,14.68
2022-08-19T11:22:46.603Z,12.15
2022-08-19T11:25:51.068Z,12.10
2022-08-19T11:28:55.425Z,10.85
2022-08-19T11:31:57.694Z,14.07
2022-08-19T11:34:59.700Z,10.45
2022-08-19T11:38:06.260Z,9.45
2022-08-19T11:41:10.237Z,9.85
2022-08-19T11:44:15.129Z,9.45
2022-08-19T11:47:17.182Z,11.20
2022-08-19T11:50:19.791Z,9.23
2022-08-19T11:53:21.887Z,11.48
2022-08-19T11:56:26.003Z,10.45
2022-08-19T11:59:28.198Z,12.07
2022-08-19T12:02:32.015Z,10.93
2022-08-19T12:05:34.023Z,8.90
2022-08-19T12:08:37.304Z,13.40
2022-08-19T12:11:40.405Z,14.98
2022-08-19T12:14:42.614Z,13.18
2022-08-19T12:17:44.569Z,11.15
2022-08-19T12:20:47.657Z,9.88
2022-08-19T12:23:55.203Z,8.75
2022-08-19T12:27:02.920Z,10.98
2022-08-19T12:30:06.696Z,8.98
2022-08-19T12:33:09.512Z,9.45
2022-08-19T12:36:13.834Z,9.18
2022-08-19T12:39:15.962Z,11.07
2022-08-19T12:42:18.888Z,11.98
2022-08-19T12:45:21.115Z,10.57
2022-08-19T12:48:33.462Z,10.48
2022-08-19T12:51:37.100Z,14.63
2022-08-19T12:54:39.130Z,16.00
2022-08-19T12:57:41.373Z,13.80
2022-08-19T13:00:43.340Z,12.00
2022-08-19T13:03:48.332Z,12.02
2022-08-19T13:06:53.089Z,14.25
2022-08-19T13:09:55.286Z,12.55
2022-08-19T13:13:00.499Z,13.57
2022-08-19T13:16:06.144Z,13.43
2022-08-19T13:19:08.416Z,15.55
2022-08-19T13:22:15.003Z,14.07
2022-08-19T13:25:19.928Z,20.20
2022-08-19T13:28:22.068Z,14.95
2022-08-19T13:31:52.430Z,15.10
2022-08-19T13:34:54.638Z,16.60
2022-08-19T13:37:56.623Z,15.07
2022-08-19T13:41:09.969Z,15.20
2022-08-19T13:44:16.110Z,14.75
2022-08-19T13:47:20.657Z,13.70
2022-08-19T13:50:28.378Z,15.45
2022-08-19T13:53:31.887Z,14.65
2022-08-19T13:56:33.891Z,17.15
2022-08-19T13:59:37.236Z,16.48
2022-08-19T14:02:40.180Z,16.33
2022-08-19T14:05:42.339Z,15.07
2022-08-19T14:08:46.418Z,16.40
2022-08-19T14:11:48.714Z,15.55
2022-08-19T14:14:50.823Z,14.70
2022-08-19T14:17:53.302Z,15.80
2022-08-19T14:20:56.457Z,16.27
2022-08-19T14:23:59.189Z,17.30
2022-08-19T14:27:01.338Z,16.75
2022-08-19T14:30:05.337Z,17.08
2022-08-19T14:33:08.323Z,18.95
2022-08-19T14:36:16.860Z,18.65
2022-08-19T14:39:20.178Z,16.25
2022-08-19T14:42:22.428Z,17.90
2022-08-19T14:45:24.592Z,17.45
2022-08-19T14:48:29.148Z,17.95
2022-08-19T14:51:31.806Z,17.20
2022-08-19T14:54:35.278Z,18.55
2022-08-19T14:57:37.502Z,17.35
2022-08-19T15:00:40.427Z,21.35
2022-08-19T15:03:42.419Z,23.35
2022-08-19T15:06:44.613Z,18.05
2022-08-19T15:09:49.688Z,31.23
2022-08-19T15:12:55.670Z,37.50
2022-08-19T15:16:07.512Z,27.45
2022-08-19T15:19:22.035Z,22.65
2022-08-19T15:22:24.029Z,20.85
2022-08-19T15:25:26.219Z,18.02
2022-08-19T15:28:28.364Z,17.55
2022-08-19T15:31:38.334Z,16.92
2022-08-19T15:34:40.864Z,16.35
2022-08-19T15:37:43.144Z,16.73
2022-08-19T15:40:45.700Z,15.18
2022-08-19T15:43:48.836Z,18.00
2022-08-19T15:46:50.806Z,15.13
2022-08-19T15:49:55.755Z,14.50
2022-08-19T15:53:04.519Z,14.30
2022-08-19T15:56:06.807Z,14.82
2022-08-19T15:59:27.404Z,14.63
2022-08-19T16:02:48.195Z,14.95
2022-08-19T16:06:09.772Z,15.55
2022-08-19T16:09:13.032Z,14.98
2022-08-19T16:12:16.725Z,16.85
2022-08-19T16:15:20.967Z,14.40
2022-08-19T16:18:23.028Z,14.05
2022-08-19T16:21:27.373Z,13.63
2022-08-19T16:24:29.571Z,14.05
2022-08-19T16:27:31.746Z,14.70
2022-08-19T16:30:33.712Z,16.65
2022-08-19T16:33:35.882Z,16.73
2022-08-19T16:36:42.029Z,14.23
2022-08-19T16:39:44.983Z,17.38
2022-08-19T16:42:47.659Z,17.27
2022-08-19T16:45:53.074Z,19.83
2022-08-19T16:48:55.106Z,19.27
2022-08-19T16:51:57.429Z,18.42
2022-08-19T16:54:59.530Z,17.88
2022-08-19T16:58:04.388Z,18.65
2022-08-19T17:01:10.168Z,18.05
2022-08-19T17:04:13.436Z,19.20
2022-08-19T17:07:15.756Z,20.35
2022-08-19T17:10:18.172Z,22.20
2022-08-19T17:13:21.647Z,20.13
2022-08-19T17:16:28.474Z,21.98
2022-08-19T17:19:30.512Z,23.30
2022-08-19T17:22:32.725Z,22.52
2022-08-19T17:25:34.904Z,25.08
2022-08-19T17:28:37.016Z,23.75
2022-08-19T17:31:41.818Z,23.48
2022-08-19T17:34:44.222Z,23.52
2022-08-19T17:37:50.526Z,26.35
2022-08-19T17:40:54.800Z,25.20
2022-08-19T17:43:58.069Z,27.73
2022-08-19T17:47:00.192Z,26.80
2022-08-19T17:50:03.226Z,23.55
2022-08-19T17:53:06.364Z,23.98
2022-08-19T17:56:25.500Z,24.58
2022-08-19T17:59:30.033Z,24.25
2022-08-19T18:02:32.329Z,24.08
2022-08-19T18:05:42.495Z,27.92
2022-08-19T18:08:46.337Z,24.08
2022-08-19T18:11:52.471Z,25.63
2022-08-19T18:14:55.173Z,24.25
2022-08-19T18:17:58.281Z,27.15
2022-08-19T18:21:01.432Z,26.77
2022-08-19T18:24:03.903Z,25.42
2022-08-19T18:27:07.010Z,27.52
2022-08-19T18:30:10.442Z,25.95
2022-08-19T18:33:15.928Z,29.52
2022-08-19T18:36:32.000Z,25.70
2022-08-19T18:39:58.825Z,27.08
2022-08-19T18:43:19.834Z,28.42
2022-08-19T18:46:40.283Z,28.48
2022-08-19T18:49:43.247Z,27.60
2022-08-19T18:52:45.202Z,32.78
2022-08-19T18:55:49.505Z,26.95
2022-08-19T18:58:53.087Z,30.05
2022-08-19T19:01:57.963Z,27.80
2022-08-19T19:05:02.783Z,28.90
2022-08-19T19:08:08.017Z,29.55
2022-08-19T19:11:10.121Z,33.10
2022-08-19T19:14:27.692Z,33.58
2022-08-19T19:17:39.879Z,29.23
2022-08-19T19:20:43.550Z,31.33
2022-08-19T19:23:46.010Z,28.23
2022-08-19T19:26:50.338Z,28.35
2022-08-19T19:29:52.911Z,30.25
2022-08-19T19:32:56.262Z,31.48
2022-08-19T19:36:12.300Z,27.88
2022-08-19T19:39:42.956Z,29.08
2022-08-19T19:42:39.246Z,27.45
2022-08-19T19:45:41.586Z,28.55
2022-08-19T19:48:44.940Z,29.52
2022-08-19T19:51:47.036Z,28.50
2022-08-19T19:54:59.713Z,28.38
2022-08-19T19:58:03.127Z,28.60
2022-08-19T20:01:09.573Z,26.48
2022-08-19T20:04:17.338Z,28.65
2022-08-19T20:07:39.467Z,29.48
2022-08-19T20:10:42.953Z,29.70
2022-08-19T20:13:44.887Z,30.58
2022-08-19T20:16:49.221Z,27.67
2022-08-19T20:19:51.263Z,28.25
2022-08-19T20:22:53.960Z,27.98
2022-08-19T20:25:56.192Z,28.05
2022-08-19T20:29:38.367Z,28.45
2022-08-19T20:32:23.707Z,29.45
2022-08-19T20:35:26.698Z,30.02
2022-08-19T20:38:28.760Z,28.52
2022-08-19T20:41:31.039Z,28.13
2022-08-19T20:44:34.053Z,27.98
2022-08-19T20:47:36.661Z,28.55
2022-08-19T20:50:39.125Z,31.30
2022-08-19T20:53:42.866Z,27.70
2022-08-19T20:56:44.801Z,28.73
2022-08-19T20:59:46.929Z,27.45
2022-08-19T21:02:48.840Z,27.77
2022-08-19T21:05:51.733Z,27.30
2022-08-19T21:08:54.551Z,27.98
2022-08-19T21:11:57.112Z,29.42
2022-08-19T21:14:59.015Z,28.00
2022-08-19T21:18:01.841Z,28.80
2022-08-19T21:21:04.560Z,28.23
2022-08-19T21:24:06.779Z,28.08
2022-08-19T21:27:09.198Z,29.13
2022-08-19T21:30:12.151Z,29.55
2022-08-19T21:33:14.135Z,29.80
2022-08-19T21:36:18.492Z,30.90
2022-08-19T21:39:20.389Z,29.13
2022-08-19T21:42:23.469Z,35.03
2022-08-19T21:45:25.541Z,33.45
2022-08-19T21:48:27.701Z,33.25
2022-08-19T21:51:29.672Z,33.95
2022-08-19T21:54:37.603Z,33.67
2022-08-19T21:57:41.554Z,33.70
2022-08-19T22:00:44.920Z,34.53
2022-08-19T22:03:49.424Z,37.80
2022-08-19T22:06:52.383Z,35.30
2022-08-19T22:09:54.309Z,33.50
2022-08-19T22:12:57.657Z,33.67
2022-08-19T22:15:59.586Z,34.78
2022-08-19T22:19:01.841Z,33.85
2022-08-19T22:22:04.153Z,35.35
2022-08-19T22:25:14.186Z,33.33
2022-08-19T22:28:33.661Z,33.10
2022-08-19T22:31:37.548Z,34.55
2022-08-19T22:34:40.548Z,34.95
2022-08-19T22:37:43.926Z,34.22
2022-08-19T22:40:48.584Z,34.38
2022-08-19T22:43:50.717Z,34.20
2022-08-19T22:46:52.639Z,32.75
2022-08-19T22:49:54.802Z,33.45
2022-08-19T22:52:58.625Z,34.60
2022-08-19T22:56:00.771Z,32.40
2022-08-19T22:59:03.570Z,63.40
2022-08-19T23:02:07.002Z,41.97
2022-08-19T23:05:10.569Z,37.03
2022-08-19T23:08:12.816Z,34.78
2022-08-19T23:11:14.915Z,33.95
2022-08-19T23:14:20.771Z,37.22
2022-08-19T23:17:23.122Z,34.50
2022-08-19T23:20:27.788Z,33.30
2022-08-19T23:23:29.727Z,33.70
2022-08-19T23:26:35.711Z,35.30
2022-08-19T23:29:56.700Z,33.55
2022-08-19T23:33:07.672Z,33.35
2022-08-19T23:36:16.724Z,33.97
2022-08-19T23:39:19.333Z,33.67
2022-08-19T23:42:21.462Z,35.17
2022-08-19T23:45:25.665Z,35.38
2022-08-19T23:48:31.280Z,36.05
2022-08-19T23:51:33.416Z,35.85
2022-08-19T23:54:42.857Z,35.22
2022-08-19T23:57:46.017Z,35.17
